To NAV CANADA Home Page Login to a new session Search on AWWS site Disclaimer Vers la page française équivalente Tips FAQ What's new on the site To the Forecasts and Observations / NOTAM section To "File a Flight Plan" website Publications and other links Update of the User's profile FIC Telephone Numbers My Weather Data Folder Route Weather Data Regional Weather Data Local Weather Data To the Forecasts and Observations / NOTAM section
Request Generated 03/21/2019 at 01:35:50 UTC . Weather information available at that time is displayed.

METAR/TAF

PRINCE GEORGE/BC    (show WxCam)

METAR CYXS 210100Z AUTO 33004KT 9SM CLR 14/M03 A2999 RMK SLP182 DENSITY ALT 2500FT=
METAR CYXS 210000Z AUTO 35004KT 290V360 9SM CLR 14/M04 A3000 RMK SLP187 DENSITY ALT 2500FT=
METAR CYXS 202300Z AUTO 35004KT 9SM CLR 15/M04 A3002 RMK SLP191 DENSITY ALT 2600FT=

TAF CYXS 210038Z 2101/2113 VRB03KT P6SM SKC PROB30 2109/2113 11/2SM
BR
RMK FCST BASED ON AUTO OBS. NXT FCST BY 210700Z=
Your time UTC time
Weather data provided by Environment Canada and NAV CANADA